Track Васильев Кирилл

Time Latitude Longitude Accuracy (66% radius in meters) Altitude (meters) Speed (km/hour) Bearing (degrees) Battery (%) GPS flag
09:15:51 60.404387 30.332009 0 0 0 0 1 delete
09:15:50 60.404404 30.331978 0 0 0 0 1 delete
09:15:49 60.404420 30.331944 0 0 0 0 1 delete
09:15:48 60.404438 30.331909 0 0 0 0 1 delete
09:15:47 60.404454 30.331878 0 0 0 0 1 delete
09:15:46 60.404472 30.331851 0 0 0 0 1 delete
09:15:45 60.404490 30.331829 0 0 0 0 1 delete
09:15:44 60.404511 30.331817 0 0 0 0 1 delete
09:15:43 60.404531 30.331816 0 0 0 0 1 delete
09:15:42 60.404549 30.331821 0 0 0 0 1 delete
09:15:41 60.404563 30.331828 0 0 0 0 1 delete
09:15:40 60.404575 30.331838 0 0 0 0 1 delete
09:15:39 60.404586 30.331852 0 0 0 0 1 delete
09:15:38 60.404597 30.331873 0 0 0 0 1 delete
09:15:37 60.404606 30.331893 0 0 0 0 1 delete
09:15:36 60.404616 30.331913 0 0 0 0 1 delete
09:15:35 60.404627 30.331928 0 0 0 0 1 delete
09:15:34 60.404637 30.331943 0 0 0 0 1 delete
09:15:33 60.404644 30.331957 0 0 0 0 1 delete
09:15:32 60.404647 30.331970 0 0 0 0 1 delete
09:15:31 60.404649 30.331981 0 0 0 0 1 delete
09:15:30 60.404649 30.331986 0 0 0 0 1 delete
09:15:29 60.404649 30.331989 0 0 0 0 1 delete
09:15:28 60.404650 30.331993 0 0 0 0 1 delete
09:15:27 60.404651 30.331997 0 0 0 0 1 delete
09:15:26 60.404653 30.332001 0 0 0 0 1 delete
09:15:25 60.404654 30.332004 0 0 0 0 1 delete
09:15:24 60.404655 30.332009 0 0 0 0 1 delete
09:15:23 60.404658 30.332016 0 0 0 0 1 delete
09:15:22 60.404661 30.332023 0 0 0 0 1 delete
09:15:21 60.404663 30.332027 0 0 0 0 1 delete
09:15:20 60.404663 30.332028 0 0 0 0 1 delete
09:15:19 60.404663 30.332030 0 0 0 0 1 delete
09:15:18 60.404663 30.332032 0 0 0 0 1 delete
09:15:17 60.404665 30.332034 0 0 0 0 1 delete
09:15:16 60.404666 30.332035 0 0 0 0 1 delete
09:15:15 60.404667 30.332036 0 0 0 0 1 delete
09:15:14 60.404669 30.332037 0 0 0 0 1 delete
09:15:13 60.404672 30.332034 0 0 0 0 1 delete
09:15:12 60.404677 30.332031 0 0 0 0 1 delete
09:15:11 60.404680 30.332027 0 0 0 0 1 delete
09:15:10 60.404682 30.332026 0 0 0 0 1 delete
09:15:09 60.404680 30.332024 0 0 0 0 1 delete
09:15:08 60.404677 30.332023 0 0 0 0 1 delete
09:15:07 60.404676 30.332025 0 0 0 0 1 delete
09:15:06 60.404680 30.332027 0 0 0 0 1 delete
09:15:05 60.404691 30.332030 0 0 0 0 1 delete
09:15:04 60.404704 30.332037 0 0 0 0 1 delete
09:15:03 60.404719 30.332052 0 0 0 0 1 delete
09:15:02 60.404739 30.332072 0 0 0 0 1 delete